sensor_id;sensor_type;location;lat;lon;timestamp;P1;durP1;ratioP1;P2;durP2;ratioP2
77214;SDS011;66210;53.282;9.864;2024-02-23T00:01:47;1.02;;;0.90;;
77214;SDS011;66210;53.282;9.864;2024-02-23T00:04:14;2.42;;;1.10;;
77214;SDS011;66210;53.282;9.864;2024-02-23T00:06:41;1.48;;;1.10;;
77214;SDS011;66210;53.282;9.864;2024-02-23T00:09:07;2.33;;;0.77;;
77214;SDS011;66210;53.282;9.864;2024-02-23T00:11:34;1.85;;;1.27;;
77214;SDS011;66210;53.282;9.864;2024-02-23T00:14:06;1.30;;;1.02;;
77214;SDS011;66210;53.282;9.864;2024-02-23T00:16:37;1.80;;;0.70;;
77214;SDS011;66210;53.282;9.864;2024-02-23T00:19:04;1.35;;;0.80;;
77214;SDS011;66210;53.282;9.864;2024-02-23T00:21:31;1.00;;;0.90;;
77214;SDS011;66210;53.282;9.864;2024-02-23T00:23:58;8.70;;;1.30;;
77214;SDS011;66210;53.282;9.864;2024-02-23T00:26:24;1.88;;;1.10;;
77214;SDS011;66210;53.282;9.864;2024-02-23T00:28:51;2.60;;;1.13;;
77214;SDS011;66210;53.282;9.864;2024-02-23T00:31:17;1.10;;;1.10;;
77214;SDS011;66210;53.282;9.864;2024-02-23T00:33:44;2.55;;;1.08;;
77214;SDS011;66210;53.282;9.864;2024-02-23T00:36:11;3.88;;;1.45;;
77214;SDS011;66210;53.282;9.864;2024-02-23T00:38:38;3.00;;;1.15;;
77214;SDS011;66210;53.282;9.864;2024-02-23T00:41:04;1.58;;;1.10;;
77214;SDS011;66210;53.282;9.864;2024-02-23T00:43:37;1.90;;;1.25;;
77214;SDS011;66210;53.282;9.864;2024-02-23T00:46:04;3.35;;;1.08;;
77214;SDS011;66210;53.282;9.864;2024-02-23T00:48:31;4.55;;;1.00;;
77214;SDS011;66210;53.282;9.864;2024-02-23T00:50:57;2.83;;;1.10;;
77214;SDS011;66210;53.282;9.864;2024-02-23T00:53:24;2.17;;;1.27;;
77214;SDS011;66210;53.282;9.864;2024-02-23T00:55:50;4.32;;;1.35;;
77214;SDS011;66210;53.282;9.864;2024-02-23T00:58:17;4.93;;;1.48;;
77214;SDS011;66210;53.282;9.864;2024-02-23T01:00:43;2.38;;;1.20;;
77214;SDS011;66210;53.282;9.864;2024-02-23T01:03:10;4.72;;;1.50;;
77214;SDS011;66210;53.282;9.864;2024-02-23T01:05:37;4.53;;;1.30;;
77214;SDS011;66210;53.282;9.864;2024-02-23T01:08:04;2.42;;;1.23;;
77214;SDS011;66210;53.282;9.864;2024-02-23T01:10:31;2.58;;;1.10;;
77214;SDS011;66210;53.282;9.864;2024-02-23T01:12:58;2.35;;;1.23;;
77214;SDS011;66210;53.282;9.864;2024-02-23T01:15:24;1.00;;;0.75;;
77214;SDS011;66210;53.282;9.864;2024-02-23T01:17:51;3.00;;;0.90;;
77214;SDS011;66210;53.282;9.864;2024-02-23T01:20:18;1.10;;;0.73;;
77214;SDS011;66210;53.282;9.864;2024-02-23T01:22:44;1.67;;;0.90;;
77214;SDS011;66210;53.282;9.864;2024-02-23T01:25:11;0.85;;;0.68;;
77214;SDS011;66210;53.282;9.864;2024-02-23T01:27:38;0.77;;;0.77;;
77214;SDS011;66210;53.282;9.864;2024-02-23T01:30:04;0.90;;;0.90;;
77214;SDS011;66210;53.282;9.864;2024-02-23T01:32:31;0.70;;;0.70;;
77214;SDS011;66210;53.282;9.864;2024-02-23T01:34:58;1.05;;;0.82;;
77214;SDS011;66210;53.282;9.864;2024-02-23T01:37:24;1.67;;;0.65;;
77214;SDS011;66210;53.282;9.864;2024-02-23T01:39:51;0.80;;;0.63;;
77214;SDS011;66210;53.282;9.864;2024-02-23T01:42:17;0.75;;;0.70;;
77214;SDS011;66210;53.282;9.864;2024-02-23T01:44:44;0.80;;;0.80;;
77214;SDS011;66210;53.282;9.864;2024-02-23T01:47:11;3.38;;;0.95;;
77214;SDS011;66210;53.282;9.864;2024-02-23T01:49:37;1.27;;;1.00;;
77214;SDS011;66210;53.282;9.864;2024-02-23T01:52:04;0.95;;;0.95;;
77214;SDS011;66210;53.282;9.864;2024-02-23T01:54:31;0.80;;;0.80;;
77214;SDS011;66210;53.282;9.864;2024-02-23T01:56:59;0.40;;;0.40;;
77214;SDS011;66210;53.282;9.864;2024-02-23T01:59:46;1.15;;;0.85;;
77214;SDS011;66210;53.282;9.864;2024-02-23T02:02:13;0.88;;;0.88;;
77214;SDS011;66210;53.282;9.864;2024-02-23T02:04:42;0.90;;;0.82;;
77214;SDS011;66210;53.282;9.864;2024-02-23T02:07:09;0.85;;;0.85;;
77214;SDS011;66210;53.282;9.864;2024-02-23T02:09:35;1.45;;;0.90;;
77214;SDS011;66210;53.282;9.864;2024-02-23T02:12:02;0.60;;;0.60;;
77214;SDS011;66210;53.282;9.864;2024-02-23T02:14:29;0.85;;;0.85;;
77214;SDS011;66210;53.282;9.864;2024-02-23T02:16:57;0.50;;;0.50;;
77214;SDS011;66210;53.282;9.864;2024-02-23T02:19:24;1.08;;;0.50;;
77214;SDS011;66210;53.282;9.864;2024-02-23T02:21:50;0.63;;;0.63;;
77214;SDS011;66210;53.282;9.864;2024-02-23T02:24:17;1.08;;;0.55;;
77214;SDS011;66210;53.282;9.864;2024-02-23T02:26:43;0.50;;;0.50;;
77214;SDS011;66210;53.282;9.864;2024-02-23T02:29:13;0.60;;;0.60;;
77214;SDS011;66210;53.282;9.864;2024-02-23T02:31:40;0.40;;;0.40;;
77214;SDS011;66210;53.282;9.864;2024-02-23T02:34:06;0.60;;;0.60;;
77214;SDS011;66210;53.282;9.864;2024-02-23T02:36:33;0.80;;;0.70;;
77214;SDS011;66210;53.282;9.864;2024-02-23T02:39:00;0.40;;;0.40;;
77214;SDS011;66210;53.282;9.864;2024-02-23T02:41:27;0.45;;;0.45;;
77214;SDS011;66210;53.282;9.864;2024-02-23T02:43:57;0.47;;;0.47;;
77214;SDS011;66210;53.282;9.864;2024-02-23T02:46:23;0.98;;;0.88;;
77214;SDS011;66210;53.282;9.864;2024-02-23T02:48:50;0.80;;;0.80;;
77214;SDS011;66210;53.282;9.864;2024-02-23T02:51:16;1.10;;;0.63;;
77214;SDS011;66210;53.282;9.864;2024-02-23T02:53:43;0.88;;;0.88;;
77214;SDS011;66210;53.282;9.864;2024-02-23T02:56:09;0.60;;;0.60;;
77214;SDS011;66210;53.282;9.864;2024-02-23T02:58:36;0.60;;;0.60;;
77214;SDS011;66210;53.282;9.864;2024-02-23T03:01:03;0.60;;;0.60;;
77214;SDS011;66210;53.282;9.864;2024-02-23T03:03:29;0.20;;;0.20;;
77214;SDS011;66210;53.282;9.864;2024-02-23T03:05:56;0.47;;;0.47;;
77214;SDS011;66210;53.282;9.864;2024-02-23T03:08:23;0.50;;;0.50;;
77214;SDS011;66210;53.282;9.864;2024-02-23T03:10:49;0.40;;;0.40;;
77214;SDS011;66210;53.282;9.864;2024-02-23T03:13:16;0.40;;;0.40;;
77214;SDS011;66210;53.282;9.864;2024-02-23T03:15:42;1.42;;;0.55;;
77214;SDS011;66210;53.282;9.864;2024-02-23T03:18:09;0.60;;;0.60;;
77214;SDS011;66210;53.282;9.864;2024-02-23T03:20:36;0.35;;;0.35;;
77214;SDS011;66210;53.282;9.864;2024-02-23T03:23:03;0.32;;;0.32;;
77214;SDS011;66210;53.282;9.864;2024-02-23T03:25:30;0.47;;;0.47;;
77214;SDS011;66210;53.282;9.864;2024-02-23T03:27:56;0.50;;;0.50;;
77214;SDS011;66210;53.282;9.864;2024-02-23T03:30:23;2.00;;;0.50;;
77214;SDS011;66210;53.282;9.864;2024-02-23T03:32:49;0.60;;;0.52;;
77214;SDS011;66210;53.282;9.864;2024-02-23T03:35:16;1.25;;;0.60;;
77214;SDS011;66210;53.282;9.864;2024-02-23T03:37:43;0.68;;;0.68;;
77214;SDS011;66210;53.282;9.864;2024-02-23T03:40:10;0.30;;;0.30;;
77214;SDS011;66210;53.282;9.864;2024-02-23T03:42:37;0.45;;;0.40;;
77214;SDS011;66210;53.282;9.864;2024-02-23T03:45:04;0.75;;;0.75;;
77214;SDS011;66210;53.282;9.864;2024-02-23T03:47:31;0.65;;;0.65;;
77214;SDS011;66210;53.282;9.864;2024-02-23T03:49:58;0.50;;;0.50;;
77214;SDS011;66210;53.282;9.864;2024-02-23T03:52:24;0.77;;;0.77;;
77214;SDS011;66210;53.282;9.864;2024-02-23T03:54:51;1.60;;;1.50;;
77214;SDS011;66210;53.282;9.864;2024-02-23T03:57:18;0.65;;;0.65;;
77214;SDS011;66210;53.282;9.864;2024-02-23T03:59:51;0.50;;;0.50;;
77214;SDS011;66210;53.282;9.864;2024-02-23T04:02:19;0.60;;;0.60;;
77214;SDS011;66210;53.282;9.864;2024-02-23T04:04:47;0.68;;;0.68;;
77214;SDS011;66210;53.282;9.864;2024-02-23T04:07:14;1.58;;;0.70;;
77214;SDS011;66210;53.282;9.864;2024-02-23T04:09:41;0.80;;;0.80;;
77214;SDS011;66210;53.282;9.864;2024-02-23T04:12:07;1.15;;;0.77;;
77214;SDS011;66210;53.282;9.864;2024-02-23T04:14:34;0.77;;;0.77;;
77214;SDS011;66210;53.282;9.864;2024-02-23T04:17:03;0.57;;;0.55;;
77214;SDS011;66210;53.282;9.864;2024-02-23T04:19:30;0.63;;;0.63;;
77214;SDS011;66210;53.282;9.864;2024-02-23T04:21:56;3.40;;;1.00;;
77214;SDS011;66210;53.282;9.864;2024-02-23T04:24:23;2.17;;;1.00;;
77214;SDS011;66210;53.282;9.864;2024-02-23T04:26:52;3.65;;;1.20;;
77214;SDS011;66210;53.282;9.864;2024-02-23T04:29:18;3.33;;;1.10;;
77214;SDS011;66210;53.282;9.864;2024-02-23T04:31:45;1.40;;;0.98;;
77214;SDS011;66210;53.282;9.864;2024-02-23T04:34:12;3.25;;;1.52;;
77214;SDS011;66210;53.282;9.864;2024-02-23T04:36:38;2.45;;;1.17;;
77214;SDS011;66210;53.282;9.864;2024-02-23T04:39:05;3.70;;;1.10;;
77214;SDS011;66210;53.282;9.864;2024-02-23T04:41:31;4.43;;;1.30;;
77214;SDS011;66210;53.282;9.864;2024-02-23T04:43:58;1.67;;;1.27;;
77214;SDS011;66210;53.282;9.864;2024-02-23T04:46:28;5.03;;;1.25;;
77214;SDS011;66210;53.282;9.864;2024-02-23T04:48:56;4.25;;;1.60;;
77214;SDS011;66210;53.282;9.864;2024-02-23T04:51:23;2.92;;;1.80;;
77214;SDS011;66210;53.282;9.864;2024-02-23T04:53:49;1.50;;;1.27;;
77214;SDS011;66210;53.282;9.864;2024-02-23T04:56:16;2.33;;;1.40;;
77214;SDS011;66210;53.282;9.864;2024-02-23T04:58:44;6.03;;;1.50;;
77214;SDS011;66210;53.282;9.864;2024-02-23T05:01:11;4.65;;;1.50;;
77214;SDS011;66210;53.282;9.864;2024-02-23T05:03:37;1.52;;;1.13;;
77214;SDS011;66210;53.282;9.864;2024-02-23T05:06:04;6.80;;;1.40;;
77214;SDS011;66210;53.282;9.864;2024-02-23T05:08:31;6.25;;;1.67;;
77214;SDS011;66210;53.282;9.864;2024-02-23T05:10:58;1.63;;;1.50;;
77214;SDS011;66210;53.282;9.864;2024-02-23T05:13:25;1.50;;;1.40;;
77214;SDS011;66210;53.282;9.864;2024-02-23T05:15:54;2.25;;;1.50;;
77214;SDS011;66210;53.282;9.864;2024-02-23T05:18:24;3.25;;;1.40;;
77214;SDS011;66210;53.282;9.864;2024-02-23T05:20:51;2.38;;;1.50;;
77214;SDS011;66210;53.282;9.864;2024-02-23T05:23:20;3.65;;;1.50;;
77214;SDS011;66210;53.282;9.864;2024-02-23T05:25:46;4.18;;;1.60;;
77214;SDS011;66210;53.282;9.864;2024-02-23T05:28:13;1.48;;;1.38;;
77214;SDS011;66210;53.282;9.864;2024-02-23T05:30:39;4.35;;;1.58;;
77214;SDS011;66210;53.282;9.864;2024-02-23T05:33:07;2.83;;;1.30;;
77214;SDS011;66210;53.282;9.864;2024-02-23T05:35:34;1.90;;;1.50;;
77214;SDS011;66210;53.282;9.864;2024-02-23T05:38:01;9.27;;;1.50;;
77214;SDS011;66210;53.282;9.864;2024-02-23T05:40:27;1.35;;;1.13;;
77214;SDS011;66210;53.282;9.864;2024-02-23T05:42:54;1.98;;;1.48;;
77214;SDS011;66210;53.282;9.864;2024-02-23T05:45:21;4.03;;;1.83;;
77214;SDS011;66210;53.282;9.864;2024-02-23T05:47:48;3.35;;;1.67;;
77214;SDS011;66210;53.282;9.864;2024-02-23T05:50:15;2.28;;;1.38;;
77214;SDS011;66210;53.282;9.864;2024-02-23T05:52:42;1.75;;;1.30;;
77214;SDS011;66210;53.282;9.864;2024-02-23T05:55:09;1.42;;;1.23;;
77214;SDS011;66210;53.282;9.864;2024-02-23T05:57:35;5.30;;;1.42;;
77214;SDS011;66210;53.282;9.864;2024-02-23T06:00:03;2.42;;;1.40;;
77214;SDS011;66210;53.282;9.864;2024-02-23T06:02:30;6.38;;;1.90;;
77214;SDS011;66210;53.282;9.864;2024-02-23T06:04:57;1.90;;;1.30;;
77214;SDS011;66210;53.282;9.864;2024-02-23T06:07:24;2.95;;;1.30;;
77214;SDS011;66210;53.282;9.864;2024-02-23T06:09:56;2.55;;;1.65;;
77214;SDS011;66210;53.282;9.864;2024-02-23T06:12:22;4.93;;;1.85;;
77214;SDS011;66210;53.282;9.864;2024-02-23T06:14:50;4.28;;;1.80;;
77214;SDS011;66210;53.282;9.864;2024-02-23T06:17:17;5.78;;;1.58;;
77214;SDS011;66210;53.282;9.864;2024-02-23T06:19:44;1.50;;;1.40;;
77214;SDS011;66210;53.282;9.864;2024-02-23T06:22:11;1.70;;;1.48;;
77214;SDS011;66210;53.282;9.864;2024-02-23T06:24:38;2.00;;;1.73;;
77214;SDS011;66210;53.282;9.864;2024-02-23T06:27:05;3.67;;;1.58;;
77214;SDS011;66210;53.282;9.864;2024-02-23T06:29:31;2.90;;;1.65;;
77214;SDS011;66210;53.282;9.864;2024-02-23T06:31:58;5.68;;;1.60;;
77214;SDS011;66210;53.282;9.864;2024-02-23T06:34:27;3.67;;;1.80;;
77214;SDS011;66210;53.282;9.864;2024-02-23T06:36:54;6.25;;;2.00;;
77214;SDS011;66210;53.282;9.864;2024-02-23T06:39:20;3.72;;;1.70;;
77214;SDS011;66210;53.282;9.864;2024-02-23T06:41:47;2.30;;;1.52;;
77214;SDS011;66210;53.282;9.864;2024-02-23T06:44:13;5.03;;;1.80;;
77214;SDS011;66210;53.282;9.864;2024-02-23T06:46:40;6.32;;;1.95;;
77214;SDS011;66210;53.282;9.864;2024-02-23T06:49:07;4.85;;;1.75;;
77214;SDS011;66210;53.282;9.864;2024-02-23T06:51:34;4.72;;;1.90;;
77214;SDS011;66210;53.282;9.864;2024-02-23T06:54:01;3.63;;;1.80;;
77214;SDS011;66210;53.282;9.864;2024-02-23T06:56:30;7.43;;;2.28;;
77214;SDS011;66210;53.282;9.864;2024-02-23T06:58:57;8.27;;;1.85;;
77214;SDS011;66210;53.282;9.864;2024-02-23T07:01:24;3.20;;;1.58;;
77214;SDS011;66210;53.282;9.864;2024-02-23T07:03:51;2.90;;;1.70;;
77214;SDS011;66210;53.282;9.864;2024-02-23T07:06:17;5.97;;;2.63;;
77214;SDS011;66210;53.282;9.864;2024-02-23T07:08:45;4.68;;;1.77;;
77214;SDS011;66210;53.282;9.864;2024-02-23T07:11:12;3.42;;;1.70;;
77214;SDS011;66210;53.282;9.864;2024-02-23T07:13:42;3.70;;;1.50;;
77214;SDS011;66210;53.282;9.864;2024-02-23T07:16:09;5.88;;;1.65;;
77214;SDS011;66210;53.282;9.864;2024-02-23T07:18:35;6.82;;;2.03;;
77214;SDS011;66210;53.282;9.864;2024-02-23T07:21:02;4.55;;;1.60;;
77214;SDS011;66210;53.282;9.864;2024-02-23T07:23:29;5.25;;;1.30;;
77214;SDS011;66210;53.282;9.864;2024-02-23T07:25:56;5.72;;;1.67;;
77214;SDS011;66210;53.282;9.864;2024-02-23T07:28:22;6.43;;;1.65;;
77214;SDS011;66210;53.282;9.864;2024-02-23T07:30:49;4.25;;;1.20;;
77214;SDS011;66210;53.282;9.864;2024-02-23T07:33:16;6.00;;;1.60;;
77214;SDS011;66210;53.282;9.864;2024-02-23T07:35:42;4.40;;;1.52;;
77214;SDS011;66210;53.282;9.864;2024-02-23T07:38:09;3.28;;;1.48;;
77214;SDS011;66210;53.282;9.864;2024-02-23T07:40:36;3.92;;;1.65;;
77214;SDS011;66210;53.282;9.864;2024-02-23T07:43:02;5.22;;;1.48;;
77214;SDS011;66210;53.282;9.864;2024-02-23T07:45:29;5.80;;;1.35;;
77214;SDS011;66210;53.282;9.864;2024-02-23T07:47:56;5.40;;;1.75;;
77214;SDS011;66210;53.282;9.864;2024-02-23T07:50:22;6.38;;;1.65;;
77214;SDS011;66210;53.282;9.864;2024-02-23T07:52:49;3.97;;;1.42;;
77214;SDS011;66210;53.282;9.864;2024-02-23T07:55:16;1.58;;;1.40;;
77214;SDS011;66210;53.282;9.864;2024-02-23T07:57:43;6.97;;;1.58;;
77214;SDS011;66210;53.282;9.864;2024-02-23T08:00:10;5.93;;;1.70;;
77214;SDS011;66210;53.282;9.864;2024-02-23T08:02:36;4.10;;;1.90;;
77214;SDS011;66210;53.282;9.864;2024-02-23T08:05:03;5.65;;;1.60;;
77214;SDS011;66210;53.282;9.864;2024-02-23T08:07:30;10.10;;;1.70;;
77214;SDS011;66210;53.282;9.864;2024-02-23T08:09:57;4.50;;;1.15;;
77214;SDS011;66210;53.282;9.864;2024-02-23T08:12:25;3.22;;;1.85;;
77214;SDS011;66210;53.282;9.864;2024-02-23T08:14:52;5.10;;;1.60;;
77214;SDS011;66210;53.282;9.864;2024-02-23T08:17:19;4.88;;;1.90;;
77214;SDS011;66210;53.282;9.864;2024-02-23T08:19:46;2.28;;;1.20;;
77214;SDS011;66210;53.282;9.864;2024-02-23T08:22:13;7.55;;;1.45;;
77214;SDS011;66210;53.282;9.864;2024-02-23T08:24:40;5.78;;;1.55;;
77214;SDS011;66210;53.282;9.864;2024-02-23T08:27:06;3.88;;;1.60;;
77214;SDS011;66210;53.282;9.864;2024-02-23T08:29:33;1.58;;;1.27;;
77214;SDS011;66210;53.282;9.864;2024-02-23T08:31:59;2.42;;;1.40;;
77214;SDS011;66210;53.282;9.864;2024-02-23T08:34:26;5.28;;;1.40;;
77214;SDS011;66210;53.282;9.864;2024-02-23T08:36:53;7.63;;;1.65;;
77214;SDS011;66210;53.282;9.864;2024-02-23T08:39:20;6.97;;;1.45;;
77214;SDS011;66210;53.282;9.864;2024-02-23T08:41:48;2.13;;;1.50;;
77214;SDS011;66210;53.282;9.864;2024-02-23T08:44:15;6.30;;;1.85;;
77214;SDS011;66210;53.282;9.864;2024-02-23T08:46:41;2.30;;;1.15;;
77214;SDS011;66210;53.282;9.864;2024-02-23T08:49:08;2.10;;;1.35;;
77214;SDS011;66210;53.282;9.864;2024-02-23T08:51:34;4.78;;;1.58;;
77214;SDS011;66210;53.282;9.864;2024-02-23T08:54:02;3.05;;;1.60;;
77214;SDS011;66210;53.282;9.864;2024-02-23T08:56:31;6.65;;;1.48;;
77214;SDS011;66210;53.282;9.864;2024-02-23T08:58:58;6.25;;;1.80;;
77214;SDS011;66210;53.282;9.864;2024-02-23T09:01:25;3.50;;;1.40;;
77214;SDS011;66210;53.282;9.864;2024-02-23T09:03:51;2.90;;;1.73;;
77214;SDS011;66210;53.282;9.864;2024-02-23T09:06:18;6.82;;;1.40;;
77214;SDS011;66210;53.282;9.864;2024-02-23T09:08:46;5.90;;;1.50;;
77214;SDS011;66210;53.282;9.864;2024-02-23T09:11:12;5.72;;;1.60;;
77214;SDS011;66210;53.282;9.864;2024-02-23T09:13:41;6.97;;;1.92;;
77214;SDS011;66210;53.282;9.864;2024-02-23T09:16:08;4.22;;;1.40;;
77214;SDS011;66210;53.282;9.864;2024-02-23T09:18:35;6.30;;;1.60;;
77214;SDS011;66210;53.282;9.864;2024-02-23T09:21:03;4.07;;;1.60;;
77214;SDS011;66210;53.282;9.864;2024-02-23T09:23:30;7.15;;;1.52;;
77214;SDS011;66210;53.282;9.864;2024-02-23T09:25:56;2.42;;;1.50;;
77214;SDS011;66210;53.282;9.864;2024-02-23T09:28:23;7.68;;;1.60;;
77214;SDS011;66210;53.282;9.864;2024-02-23T09:30:50;8.05;;;1.50;;
77214;SDS011;66210;53.282;9.864;2024-02-23T09:33:17;5.72;;;1.58;;
77214;SDS011;66210;53.282;9.864;2024-02-23T09:35:43;4.35;;;1.80;;
77214;SDS011;66210;53.282;9.864;2024-02-23T09:38:10;4.95;;;1.65;;
77214;SDS011;66210;53.282;9.864;2024-02-23T09:40:37;3.67;;;1.50;;
77214;SDS011;66210;53.282;9.864;2024-02-23T09:43:05;3.55;;;1.60;;
77214;SDS011;66210;53.282;9.864;2024-02-23T09:45:34;4.60;;;1.50;;
77214;SDS011;66210;53.282;9.864;2024-02-23T09:48:00;4.82;;;1.50;;
77214;SDS011;66210;53.282;9.864;2024-02-23T09:50:29;5.40;;;1.58;;
77214;SDS011;66210;53.282;9.864;2024-02-23T09:52:57;7.00;;;1.48;;
77214;SDS011;66210;53.282;9.864;2024-02-23T09:55:25;5.78;;;1.80;;
77214;SDS011;66210;53.282;9.864;2024-02-23T09:57:51;3.33;;;1.58;;
77214;SDS011;66210;53.282;9.864;2024-02-23T10:00:23;3.53;;;1.17;;
77214;SDS011;66210;53.282;9.864;2024-02-23T10:02:50;6.95;;;1.42;;
77214;SDS011;66210;53.282;9.864;2024-02-23T10:05:21;5.43;;;1.60;;
77214;SDS011;66210;53.282;9.864;2024-02-23T10:07:58;6.32;;;1.27;;
77214;SDS011;66210;53.282;9.864;2024-02-23T10:10:29;5.13;;;1.40;;
77214;SDS011;66210;53.282;9.864;2024-02-23T10:12:59;6.70;;;1.50;;
77214;SDS011;66210;53.282;9.864;2024-02-23T10:15:28;2.63;;;1.40;;
77214;SDS011;66210;53.282;9.864;2024-02-23T10:17:56;7.80;;;1.30;;
77214;SDS011;66210;53.282;9.864;2024-02-23T10:20:23;4.32;;;1.40;;
77214;SDS011;66210;53.282;9.864;2024-02-23T10:22:50;7.78;;;1.45;;
77214;SDS011;66210;53.282;9.864;2024-02-23T10:25:17;5.72;;;2.03;;
77214;SDS011;66210;53.282;9.864;2024-02-23T10:27:43;2.70;;;1.02;;
77214;SDS011;66210;53.282;9.864;2024-02-23T10:30:10;5.78;;;1.52;;
77214;SDS011;66210;53.282;9.864;2024-02-23T10:32:41;5.82;;;1.30;;
77214;SDS011;66210;53.282;9.864;2024-02-23T10:35:14;3.83;;;1.35;;
77214;SDS011;66210;53.282;9.864;2024-02-23T10:37:43;7.05;;;1.65;;
77214;SDS011;66210;53.282;9.864;2024-02-23T10:40:11;5.20;;;1.58;;
77214;SDS011;66210;53.282;9.864;2024-02-23T10:42:39;3.00;;;1.35;;
77214;SDS011;66210;53.282;9.864;2024-02-23T10:45:16;4.47;;;1.50;;
77214;SDS011;66210;53.282;9.864;2024-02-23T10:47:44;4.40;;;1.27;;
77214;SDS011;66210;53.282;9.864;2024-02-23T10:50:11;4.40;;;1.30;;
77214;SDS011;66210;53.282;9.864;2024-02-23T10:52:42;5.00;;;1.63;;
77214;SDS011;66210;53.282;9.864;2024-02-23T10:55:09;3.63;;;1.40;;
77214;SDS011;66210;53.282;9.864;2024-02-23T10:57:37;4.97;;;1.27;;
77214;SDS011;66210;53.282;9.864;2024-02-23T11:00:05;4.60;;;1.30;;
77214;SDS011;66210;53.282;9.864;2024-02-23T11:02:37;5.38;;;1.25;;
77214;SDS011;66210;53.282;9.864;2024-02-23T11:05:07;4.13;;;1.48;;
77214;SDS011;66210;53.282;9.864;2024-02-23T11:07:39;3.28;;;1.50;;
77214;SDS011;66210;53.282;9.864;2024-02-23T11:10:06;2.20;;;1.02;;
77214;SDS011;66210;53.282;9.864;2024-02-23T11:12:34;4.35;;;1.25;;
77214;SDS011;66210;53.282;9.864;2024-02-23T11:15:02;5.60;;;1.33;;
77214;SDS011;66210;53.282;9.864;2024-02-23T11:17:30;6.13;;;1.23;;
77214;SDS011;66210;53.282;9.864;2024-02-23T11:20:02;2.83;;;1.00;;
77214;SDS011;66210;53.282;9.864;2024-02-23T11:22:31;1.30;;;0.75;;
77214;SDS011;66210;53.282;9.864;2024-02-23T11:25:05;1.83;;;0.93;;
77214;SDS011;66210;53.282;9.864;2024-02-23T11:27:35;4.63;;;1.60;;
77214;SDS011;66210;53.282;9.864;2024-02-23T11:30:09;3.92;;;1.20;;
77214;SDS011;66210;53.282;9.864;2024-02-23T11:35:13;5.57;;;1.20;;
77214;SDS011;66210;53.282;9.864;2024-02-23T11:37:59;5.30;;;1.05;;
77214;SDS011;66210;53.282;9.864;2024-02-23T11:40:31;3.65;;;0.98;;
77214;SDS011;66210;53.282;9.864;2024-02-23T11:42:58;3.60;;;1.25;;
77214;SDS011;66210;53.282;9.864;2024-02-23T11:45:29;2.53;;;1.15;;
77214;SDS011;66210;53.282;9.864;2024-02-23T11:47:57;5.18;;;1.17;;
77214;SDS011;66210;53.282;9.864;2024-02-23T11:50:24;4.88;;;1.15;;
77214;SDS011;66210;53.282;9.864;2024-02-23T11:52:51;2.67;;;1.27;;
77214;SDS011;66210;53.282;9.864;2024-02-23T11:55:20;11.75;;;1.65;;
77214;SDS011;66210;53.282;9.864;2024-02-23T11:57:50;2.53;;;1.15;;
77214;SDS011;66210;53.282;9.864;2024-02-23T12:00:30;3.95;;;1.40;;
77214;SDS011;66210;53.282;9.864;2024-02-23T12:02:57;1.55;;;1.00;;
77214;SDS011;66210;53.282;9.864;2024-02-23T12:05:23;5.95;;;1.90;;
77214;SDS011;66210;53.282;9.864;2024-02-23T12:07:50;1.88;;;1.10;;
77214;SDS011;66210;53.282;9.864;2024-02-23T12:10:17;5.68;;;1.13;;
77214;SDS011;66210;53.282;9.864;2024-02-23T12:12:44;1.88;;;1.27;;
77214;SDS011;66210;53.282;9.864;2024-02-23T12:15:11;7.22;;;1.75;;
77214;SDS011;66210;53.282;9.864;2024-02-23T12:17:37;1.50;;;1.00;;
77214;SDS011;66210;53.282;9.864;2024-02-23T12:20:13;4.10;;;1.33;;
77214;SDS011;66210;53.282;9.864;2024-02-23T12:22:43;2.40;;;0.98;;
77214;SDS011;66210;53.282;9.864;2024-02-23T12:25:09;3.03;;;1.35;;
77214;SDS011;66210;53.282;9.864;2024-02-23T12:27:38;6.13;;;1.30;;
77214;SDS011;66210;53.282;9.864;2024-02-23T12:30:05;5.60;;;1.40;;
77214;SDS011;66210;53.282;9.864;2024-02-23T12:32:32;4.32;;;1.30;;
77214;SDS011;66210;53.282;9.864;2024-02-23T12:34:59;1.75;;;1.10;;
77214;SDS011;66210;53.282;9.864;2024-02-23T12:37:25;4.38;;;1.40;;
77214;SDS011;66210;53.282;9.864;2024-02-23T12:39:52;5.38;;;1.30;;
77214;SDS011;66210;53.282;9.864;2024-02-23T12:42:19;2.28;;;1.30;;
77214;SDS011;66210;53.282;9.864;2024-02-23T12:44:45;3.33;;;1.25;;
77214;SDS011;66210;53.282;9.864;2024-02-23T12:47:13;2.53;;;1.00;;
77214;SDS011;66210;53.282;9.864;2024-02-23T12:49:40;2.05;;;0.95;;
77214;SDS011;66210;53.282;9.864;2024-02-23T12:52:11;4.18;;;1.00;;
77214;SDS011;66210;53.282;9.864;2024-02-23T12:54:38;4.43;;;1.08;;
77214;SDS011;66210;53.282;9.864;2024-02-23T12:57:05;3.42;;;1.10;;
77214;SDS011;66210;53.282;9.864;2024-02-23T12:59:31;4.32;;;1.20;;
77214;SDS011;66210;53.282;9.864;2024-02-23T13:01:58;1.15;;;0.95;;
77214;SDS011;66210;53.282;9.864;2024-02-23T13:04:24;3.08;;;1.00;;
77214;SDS011;66210;53.282;9.864;2024-02-23T13:06:51;1.65;;;1.00;;
77214;SDS011;66210;53.282;9.864;2024-02-23T13:09:17;2.17;;;1.05;;
77214;SDS011;66210;53.282;9.864;2024-02-23T13:11:44;1.60;;;0.98;;
77214;SDS011;66210;53.282;9.864;2024-02-23T13:14:12;5.40;;;1.00;;
77214;SDS011;66210;53.282;9.864;2024-02-23T13:16:39;2.63;;;0.93;;
77214;SDS011;66210;53.282;9.864;2024-02-23T13:19:06;4.30;;;1.27;;
77214;SDS011;66210;53.282;9.864;2024-02-23T13:21:35;2.22;;;1.27;;
77214;SDS011;66210;53.282;9.864;2024-02-23T13:24:02;4.10;;;0.55;;
77214;SDS011;66210;53.282;9.864;2024-02-23T13:26:28;1.77;;;0.93;;
77214;SDS011;66210;53.282;9.864;2024-02-23T13:28:55;2.25;;;1.30;;
77214;SDS011;66210;53.282;9.864;2024-02-23T13:31:22;1.15;;;0.77;;
77214;SDS011;66210;53.282;9.864;2024-02-23T13:33:48;2.67;;;0.90;;
77214;SDS011;66210;53.282;9.864;2024-02-23T13:36:15;3.00;;;1.10;;
77214;SDS011;66210;53.282;9.864;2024-02-23T13:38:41;1.30;;;0.85;;
77214;SDS011;66210;53.282;9.864;2024-02-23T13:41:08;4.18;;;1.20;;
77214;SDS011;66210;53.282;9.864;2024-02-23T13:43:35;1.73;;;0.80;;
77214;SDS011;66210;53.282;9.864;2024-02-23T13:46:02;2.63;;;1.15;;
77214;SDS011;66210;53.282;9.864;2024-02-23T13:48:30;5.57;;;1.13;;
77214;SDS011;66210;53.282;9.864;2024-02-23T13:50:57;2.20;;;1.08;;
77214;SDS011;66210;53.282;9.864;2024-02-23T13:53:24;7.78;;;2.10;;
77214;SDS011;66210;53.282;9.864;2024-02-23T13:55:51;1.10;;;0.80;;
77214;SDS011;66210;53.282;9.864;2024-02-23T13:58:17;3.05;;;1.17;;
77214;SDS011;66210;53.282;9.864;2024-02-23T14:00:45;1.33;;;1.00;;
77214;SDS011;66210;53.282;9.864;2024-02-23T14:03:15;3.10;;;1.17;;
77214;SDS011;66210;53.282;9.864;2024-02-23T14:05:44;2.15;;;0.88;;
77214;SDS011;66210;53.282;9.864;2024-02-23T14:08:12;2.83;;;0.95;;
77214;SDS011;66210;53.282;9.864;2024-02-23T14:10:39;2.88;;;1.25;;
77214;SDS011;66210;53.282;9.864;2024-02-23T14:13:07;4.57;;;1.35;;
77214;SDS011;66210;53.282;9.864;2024-02-23T14:15:33;4.88;;;1.17;;
77214;SDS011;66210;53.282;9.864;2024-02-23T14:18:00;4.90;;;1.95;;
77214;SDS011;66210;53.282;9.864;2024-02-23T14:20:27;2.97;;;1.38;;
77214;SDS011;66210;53.282;9.864;2024-02-23T14:22:54;3.63;;;1.00;;
77214;SDS011;66210;53.282;9.864;2024-02-23T14:25:21;3.92;;;1.00;;
77214;SDS011;66210;53.282;9.864;2024-02-23T14:27:48;5.22;;;1.52;;
77214;SDS011;66210;53.282;9.864;2024-02-23T14:30:14;3.50;;;1.10;;
77214;SDS011;66210;53.282;9.864;2024-02-23T14:32:41;2.17;;;1.40;;
77214;SDS011;66210;53.282;9.864;2024-02-23T14:35:09;2.50;;;1.05;;
77214;SDS011;66210;53.282;9.864;2024-02-23T14:37:36;4.43;;;1.30;;
77214;SDS011;66210;53.282;9.864;2024-02-23T14:40:02;3.78;;;1.30;;
77214;SDS011;66210;53.282;9.864;2024-02-23T14:42:29;2.15;;;1.25;;
77214;SDS011;66210;53.282;9.864;2024-02-23T14:44:56;2.60;;;1.33;;
77214;SDS011;66210;53.282;9.864;2024-02-23T14:47:23;5.95;;;1.67;;
77214;SDS011;66210;53.282;9.864;2024-02-23T14:50:00;6.80;;;1.30;;
77214;SDS011;66210;53.282;9.864;2024-02-23T14:52:28;2.17;;;1.10;;